모두
Rome Service Airport (Rome, OR) 0OR6 기상
There is no TAF data available at 0OR6 or any nearby airports.
There is no METAR data available at 0OR6. Showing METAR data for KREO (22 mi 서남).
최근 REO METAR 이력(0OR6에 대한 데이터 없음)
| Date | Time (MDT) | Flight Rules | Wind Dir. | Speed | Type | Height AGL (ft) | Visibility | Temp (°C) | Temp (°F) | Dew Point (°C) | Dew Point (°F) | Rel. Humid. | Pressure | Density Altitude | Remarks |
|---|---|---|---|---|---|---|---|---|---|---|---|---|---|---|---|
| 04-9월 | 21:52 | n/a | 90° | 7 kt | Missing | 12° | 53° | 8° | 46° | 77% | 29.96 in Hg | 4,603 ft | |||
| 04-9월 | 20:52 | n/a | 70° | 6 kt | Missing | 13° | 55° | 8° | 46° | 69% | 29.94 in Hg | 4,743 ft | |||
| 04-9월 | 19:52 | n/a | 20° | 5 kt | Missing | 16° | 60° | 6° | 42° | 51% | 29.94 in Hg | 5,103 ft | |||
| 04-9월 | 18:52 | n/a | 20° | 3 kt | Missing | 17° | 62° | 6° | 42° | 50% | 29.94 in Hg | 5,223 ft | |||
| 04-9월 | 17:52 | n/a | Calm | Missing | 16° | 60° | 7° | 44° | 55% | 29.95 in Hg | 5,093 ft | ||||
| 04-9월 | 16:52 | n/a | 150° | 5 kt | Missing | 16° | 60° | 7° | 44° | 56% | 29.96 in Hg | 5,083 ft | |||
| 04-9월 | 15:52 | n/a | 120° | 7 kt | Missing | 13° | 55° | 8° | 46° | 72% | 29.96 in Hg | 4,723 ft | |||
| 04-9월 | 14:52 | n/a | 120° | 5 kt | Missing | 14° | 57° | 8° | 46° | 67% | 29.97 in Hg | 4,833 ft | |||
| 04-9월 | 13:52 | n/a | Calm | Missing | 12° | 53° | 7° | 44° | 74% | 29.97 in Hg | 4,593 ft | ||||
| 04-9월 | 12:52 | n/a | Calm | Missing | 10° | 50° | 7° | 44° | 83% | 29.99 in Hg | 4,333 ft | ||||
| 04-9월 | 11:52 | n/a | Calm | Missing | 9° | 48° | 7° | 44° | 86% | 29.98 in Hg | 4,223 ft | ||||
| 04-9월 | 10:52 | n/a | 340° | 3 kt | Missing | 9° | 48° | 7° | 44° | 89% | 29.97 in Hg | 4,233 ft | |||
| 04-9월 | 09:52 | n/a | 360° | 3 kt | Missing | 8° | 46° | 7° | 44° | 93% | 29.97 in Hg | 4,113 ft | |||
| 04-9월 | 08:52 | n/a | 290° | 3 kt | Missing | 7° | 44° | 7° | 44° | 97% | 29.95 in Hg | 4,013 ft | |||
| 04-9월 | 07:52 | n/a | 300° | 3 kt | Missing | 7° | 44° | 7° | 44° | 97% | 29.94 in Hg | 4,023 ft | |||
| 04-9월 | 06:52 | n/a | 160° | 5 kt | Missing | 7° | 44° | 6° | 42° | 93% | 29.92 in Hg | 4,043 ft | |||
| 04-9월 | 05:52 | n/a | 70° | 3 kt | Missing | 7° | 44° | 6° | 42° | 96% | 29.93 in Hg | 4,033 ft | |||
| 04-9월 | 04:52 | n/a | 30° | 4 kt | Missing | 7° | 44° | 6° | 42° | 96% | 29.93 in Hg | 4,033 ft | |||
| 04-9월 | 03:52 | n/a | 60° | 5 kt | Missing | 7° | 44° | 6° | 42° | 93% | 29.91 in Hg | 4,053 ft | |||
| 04-9월 | 02:52 | n/a | 110° | 3 kt | Missing | 7° | 44° | 6° | 42° | 93% | 29.91 in Hg | 4,053 ft | |||
| 04-9월 | 01:52 | n/a | 90° | 7 kt | Missing | 6° | 42° | 5° | 41° | 93% | 29.91 in Hg | 3,933 ft | |||
| 04-9월 | 00:52 | n/a | 90° | 6 kt | Missing | 6° | 42° | 5° | 41° | 93% | 29.91 in Hg | 3,933 ft | |||
| 03-9월 | 23:52 | n/a | 70° | 9 kt | Missing | 6° | 42° | 6° | 42° | 97% | 29.90 in Hg | 3,943 ft | |||
| 03-9월 | 22:52 | n/a | 50° | 9 kt | Missing | 6° | 42° | 6° | 42° | 97% | 29.90 in Hg | 3,943 ft |
로그인
| 귀하의 브라우저는 지원되지 않습니다.. 브라우저를 업그레이드하세요 |
